createdAt,value
2018-05-11T00:01:28.291Z,85.40
2018-05-11T00:04:32.376Z,85.90
2018-05-11T00:07:35.732Z,85.90
2018-05-11T00:10:39.041Z,86.00
2018-05-11T00:13:42.473Z,86.30
2018-05-11T00:16:45.790Z,86.40
2018-05-11T00:19:49.125Z,86.30
2018-05-11T00:22:52.458Z,86.20
2018-05-11T00:25:55.859Z,86.30
2018-05-11T00:28:59.192Z,86.30
2018-05-11T00:32:03.289Z,86.20
2018-05-11T00:35:06.669Z,86.20
2018-05-11T00:38:10.078Z,86.10
2018-05-11T00:41:13.427Z,86.10
2018-05-11T00:44:16.880Z,85.10
2018-05-11T00:47:20.206Z,84.90
2018-05-11T00:50:24.306Z,85.10
2018-05-11T00:53:27.676Z,85.00
2018-05-11T00:56:31.073Z,84.60
2018-05-11T00:59:34.478Z,84.50
2018-05-11T01:02:37.804Z,83.90
2018-05-11T01:05:41.112Z,84.10
2018-05-11T01:08:44.473Z,84.30
2018-05-11T01:11:47.869Z,84.40
2018-05-11T01:14:51.223Z,84.00
2018-05-11T01:17:55.305Z,83.40
2018-05-11T01:20:58.649Z,83.40
2018-05-11T01:24:01.980Z,83.40
2018-05-11T01:27:05.305Z,83.50
2018-05-11T01:30:08.625Z,83.50
2018-05-11T01:33:12.733Z,83.60
2018-05-11T01:36:16.917Z,83.70
2018-05-11T01:39:20.314Z,83.60
2018-05-11T01:42:23.625Z,83.50
2018-05-11T01:45:27.029Z,83.50
2018-05-11T01:48:30.414Z,82.90
2018-05-11T01:51:33.819Z,83.50
2018-05-11T01:54:37.134Z,83.50
2018-05-11T01:57:40.510Z,84.00
2018-05-11T02:00:43.823Z,84.30
2018-05-11T02:03:47.210Z,84.40
2018-05-11T02:06:50.528Z,84.60
2018-05-11T02:09:53.901Z,85.00
2018-05-11T02:12:57.216Z,85.00
2018-05-11T02:16:00.592Z,85.10
2018-05-11T02:19:03.913Z,85.30
2018-05-11T02:22:07.271Z,85.60
2018-05-11T02:25:10.594Z,85.80
2018-05-11T02:28:13.997Z,85.50
2018-05-11T02:31:17.321Z,85.80
2018-05-11T02:34:21.520Z,86.70
2018-05-11T02:37:24.909Z,85.80
2018-05-11T02:40:28.316Z,86.00
2018-05-11T02:43:31.635Z,86.00
2018-05-11T02:46:35.827Z,86.20
2018-05-11T02:49:39.220Z,85.50
2018-05-11T02:52:42.555Z,85.60
2018-05-11T02:55:45.929Z,85.70
2018-05-11T02:58:49.338Z,86.00
2018-05-11T03:01:54.253Z,85.90
2018-05-11T03:04:57.648Z,85.90
2018-05-11T03:08:01.013Z,86.10
2018-05-11T03:11:04.363Z,86.10
2018-05-11T03:14:07.751Z,85.90
2018-05-11T03:17:11.182Z,86.10
2018-05-11T03:20:14.502Z,86.10
2018-05-11T03:23:18.681Z,85.70
2018-05-11T03:26:22.078Z,85.50
2018-05-11T03:29:25.421Z,85.60
2018-05-11T03:32:28.761Z,86.10
2018-05-11T03:35:32.106Z,85.90
2018-05-11T03:38:36.298Z,85.90
2018-05-11T03:41:40.499Z,86.00
2018-05-11T03:44:43.813Z,85.90
2018-05-11T03:47:47.214Z,86.30
2018-05-11T03:50:50.596Z,86.40
2018-05-11T03:53:53.934Z,85.80
2018-05-11T03:56:58.130Z,85.60
2018-05-11T04:00:01.578Z,85.60
2018-05-11T04:03:22.696Z,85.20
2018-05-11T04:06:43.806Z,85.20
2018-05-11T04:09:47.129Z,85.40
2018-05-11T04:12:50.477Z,85.30
2018-05-11T04:15:54.552Z,85.40
2018-05-11T04:18:57.888Z,84.80
2018-05-11T04:22:01.252Z,84.70
2018-05-11T04:25:04.600Z,84.10
2018-05-11T04:28:08.687Z,84.90
2018-05-11T04:31:12.036Z,84.90
2018-05-11T04:34:15.348Z,85.10
2018-05-11T04:37:18.706Z,85.30
2018-05-11T04:40:22.798Z,86.10
2018-05-11T04:43:26.187Z,86.00
2018-05-11T04:46:29.586Z,85.60
2018-05-11T04:49:32.988Z,86.20
2018-05-11T04:52:36.309Z,86.60
2018-05-11T04:55:41.233Z,87.60
2018-05-11T04:58:44.612Z,87.60
2018-05-11T05:01:47.955Z,88.00
2018-05-11T05:04:52.056Z,88.40
2018-05-11T05:07:55.420Z,88.50
2018-05-11T05:10:58.824Z,88.50
2018-05-11T05:14:02.163Z,88.30
2018-05-11T05:17:06.246Z,88.10
2018-05-11T05:20:09.642Z,88.00
2018-05-11T05:23:13.049Z,88.30
2018-05-11T05:26:16.385Z,86.70
2018-05-11T05:29:20.471Z,86.90
2018-05-11T05:32:23.812Z,86.80
2018-05-11T05:35:27.141Z,87.00
2018-05-11T05:38:30.482Z,85.60
2018-05-11T05:41:33.849Z,85.80
2018-05-11T05:44:37.251Z,85.70
2018-05-11T05:47:40.644Z,84.60
2018-05-11T05:50:44.044Z,85.00
2018-05-11T05:53:47.362Z,84.90
2018-05-11T05:56:50.725Z,83.80
2018-05-11T05:59:54.119Z,84.00
2018-05-11T06:02:57.410Z,83.60
2018-05-11T06:06:00.749Z,84.10
2018-05-11T06:09:04.114Z,83.90
2018-05-11T06:12:07.429Z,83.20
2018-05-11T06:15:10.775Z,83.70
2018-05-11T06:18:14.909Z,82.40
2018-05-11T06:21:18.257Z,82.40
2018-05-11T06:24:21.583Z,82.20
2018-05-11T06:27:24.959Z,78.80
2018-05-11T06:30:28.269Z,78.10
2018-05-11T06:33:31.604Z,77.60
2018-05-11T06:36:34.944Z,76.60
2018-05-11T06:39:38.274Z,75.90
2018-05-11T06:42:41.597Z,76.60
2018-05-11T06:45:44.964Z,76.40
2018-05-11T06:48:48.349Z,74.10
2018-05-11T06:51:51.698Z,74.40
2018-05-11T06:54:55.043Z,73.10
2018-05-11T06:57:58.380Z,72.70
2018-05-11T07:01:02.458Z,68.90
2018-05-11T07:04:05.812Z,69.00
2018-05-11T07:07:09.113Z,68.90
2018-05-11T07:10:12.446Z,68.70
2018-05-11T07:13:15.758Z,67.80
2018-05-11T07:16:19.097Z,67.90
2018-05-11T07:19:22.463Z,68.00
2018-05-11T07:22:26.561Z,67.20
2018-05-11T07:25:29.963Z,66.40
2018-05-11T07:28:33.312Z,65.20
2018-05-11T07:31:36.624Z,65.40
2018-05-11T07:34:40.053Z,65.70
2018-05-11T07:37:43.446Z,64.20
2018-05-11T07:40:46.844Z,63.20
2018-05-11T07:43:50.255Z,64.10
2018-05-11T07:46:53.656Z,63.80
2018-05-11T07:49:57.058Z,64.30
2018-05-11T07:53:00.460Z,65.40
2018-05-11T07:56:03.768Z,62.70
2018-05-11T07:59:07.153Z,62.80
2018-05-11T08:02:10.556Z,64.20
2018-05-11T08:05:13.945Z,64.20
2018-05-11T08:08:17.344Z,63.30
2018-05-11T08:11:20.764Z,62.10
2018-05-11T08:14:25.811Z,62.10
2018-05-11T08:17:29.039Z,62.00
2018-05-11T08:20:32.372Z,58.60
2018-05-11T08:23:35.773Z,60.80
2018-05-11T08:26:39.205Z,61.60
2018-05-11T08:29:42.566Z,58.60
2018-05-11T08:32:45.875Z,59.50
2018-05-11T08:35:49.300Z,58.90
2018-05-11T08:38:52.605Z,58.60
2018-05-11T08:41:55.982Z,57.90
2018-05-11T08:44:59.314Z,57.00
2018-05-11T08:48:03.425Z,57.20
2018-05-11T08:51:07.507Z,55.00
2018-05-11T08:54:10.907Z,55.00
2018-05-11T08:57:16.613Z,55.50
2018-05-11T09:00:20.207Z,55.60
2018-05-11T09:03:24.406Z,53.70
2018-05-11T09:06:27.737Z,53.70
2018-05-11T09:09:31.095Z,54.60
2018-05-11T09:12:34.437Z,54.20
2018-05-11T09:15:37.754Z,53.10
2018-05-11T09:18:41.098Z,53.10
2018-05-11T09:21:44.532Z,53.60
2018-05-11T09:24:47.875Z,54.10
2018-05-11T09:27:51.290Z,52.60
2018-05-11T09:30:54.650Z,52.70
2018-05-11T09:33:57.962Z,52.00
2018-05-11T09:37:01.393Z,50.80
2018-05-11T09:40:04.828Z,52.30
2018-05-11T09:43:08.167Z,52.00
2018-05-11T09:46:11.590Z,51.80
2018-05-11T09:49:15.074Z,49.50
2018-05-11T09:52:18.380Z,50.20
2018-05-11T09:55:21.741Z,50.20
2018-05-11T09:58:25.061Z,48.80
2018-05-11T10:01:28.393Z,49.90
2018-05-11T10:04:32.662Z,49.60
2018-05-11T10:07:36.006Z,49.40
2018-05-11T10:10:39.336Z,49.50
2018-05-11T10:13:42.680Z,50.10
2018-05-11T10:16:46.075Z,51.10
2018-05-11T10:19:49.404Z,49.50
2018-05-11T10:22:52.787Z,51.10
2018-05-11T10:25:56.156Z,51.00
2018-05-11T10:28:59.596Z,52.20
2018-05-11T10:32:02.937Z,51.60
2018-05-11T10:35:07.248Z,49.50
2018-05-11T10:38:10.587Z,49.30
2018-05-11T10:41:13.917Z,51.00
2018-05-11T10:44:18.025Z,49.20
2018-05-11T10:47:21.429Z,49.20
2018-05-11T10:50:25.542Z,49.50
2018-05-11T10:53:28.877Z,48.80
2018-05-11T10:56:32.231Z,49.60
2018-05-11T10:59:35.546Z,51.30
2018-05-11T11:02:38.972Z,51.20
2018-05-11T11:05:42.324Z,51.10
2018-05-11T11:08:45.756Z,51.40
2018-05-11T11:11:49.829Z,50.10
2018-05-11T11:14:53.225Z,50.10
2018-05-11T11:17:56.535Z,50.50
2018-05-11T11:20:59.892Z,47.40
2018-05-11T11:24:03.219Z,49.40
2018-05-11T11:27:06.575Z,47.70
2018-05-11T11:30:09.910Z,48.70
2018-05-11T11:33:13.321Z,47.40
2018-05-11T11:36:16.736Z,47.70
2018-05-11T11:39:20.086Z,47.10
2018-05-11T11:42:23.397Z,44.80
2018-05-11T11:45:26.943Z,44.70
2018-05-11T11:48:30.338Z,47.10
2018-05-11T11:51:34.456Z,43.80
2018-05-11T11:54:37.850Z,43.80
2018-05-11T11:57:41.234Z,43.10
2018-05-11T12:00:44.638Z,43.70
2018-05-11T12:03:47.972Z,43.70
2018-05-11T12:06:52.060Z,45.00
2018-05-11T12:09:55.408Z,45.00
2018-05-11T12:12:58.738Z,45.20
2018-05-11T12:16:02.140Z,47.40
2018-05-11T12:19:05.537Z,46.30
2018-05-11T12:22:08.950Z,46.80
2018-05-11T12:25:12.327Z,44.90
2018-05-11T12:28:15.683Z,46.30
2018-05-11T12:31:19.026Z,45.40
2018-05-11T12:34:22.438Z,44.90
2018-05-11T12:37:25.817Z,46.80
2018-05-11T12:40:29.191Z,45.00
2018-05-11T12:43:32.509Z,43.50
2018-05-11T12:46:35.864Z,45.80
2018-05-11T12:49:39.991Z,44.90
2018-05-11T12:52:43.344Z,44.80
2018-05-11T12:55:46.658Z,45.80
2018-05-11T12:58:50.056Z,45.80
2018-05-11T13:01:53.441Z,44.40
2018-05-11T13:04:56.826Z,44.30
2018-05-11T13:08:00.225Z,45.10
2018-05-11T13:11:03.620Z,44.90
2018-05-11T13:14:07.012Z,44.60
2018-05-11T13:17:10.374Z,43.80
2018-05-11T13:20:13.715Z,42.80
2018-05-11T13:23:17.060Z,43.70
2018-05-11T13:26:20.409Z,44.40
2018-05-11T13:29:23.789Z,44.20
2018-05-11T13:32:27.107Z,43.80
2018-05-11T13:35:30.567Z,44.10
2018-05-11T13:38:33.885Z,43.30
2018-05-11T13:41:37.341Z,44.70
2018-05-11T13:44:41.422Z,44.50
2018-05-11T13:47:44.774Z,44.50
2018-05-11T13:50:48.141Z,44.30
2018-05-11T13:53:52.256Z,43.10
2018-05-11T13:56:55.581Z,43.10
2018-05-11T13:59:59.698Z,44.70
2018-05-11T14:03:03.867Z,45.30
2018-05-11T14:06:07.226Z,45.40
2018-05-11T14:09:10.633Z,44.50
2018-05-11T14:12:13.965Z,44.60
2018-05-11T14:15:17.369Z,45.40
2018-05-11T14:18:20.730Z,44.30
2018-05-11T14:21:24.075Z,44.60
2018-05-11T14:24:27.438Z,44.40
2018-05-11T14:27:32.265Z,43.90
2018-05-11T14:30:35.696Z,44.10
2018-05-11T14:33:39.145Z,43.00
2018-05-11T14:36:43.310Z,43.10
2018-05-11T14:39:46.670Z,43.00
2018-05-11T14:42:50.122Z,43.30
2018-05-11T14:45:53.446Z,42.80
2018-05-11T14:48:57.553Z,44.00
2018-05-11T14:52:02.368Z,43.30
2018-05-11T14:55:05.818Z,43.20
2018-05-11T14:58:09.157Z,43.60
2018-05-11T15:01:12.511Z,43.40
2018-05-11T15:04:15.879Z,43.70
2018-05-11T15:07:19.256Z,42.50
2018-05-11T15:10:22.659Z,42.00
2018-05-11T15:13:26.110Z,42.80
2018-05-11T15:16:29.435Z,42.40
2018-05-11T15:19:32.770Z,41.90
2018-05-11T15:22:36.142Z,41.30
2018-05-11T15:25:39.499Z,41.20
2018-05-11T15:28:42.834Z,40.50
2018-05-11T15:31:46.237Z,39.40
2018-05-11T15:34:49.638Z,39.40
2018-05-11T15:37:52.989Z,38.40
2018-05-11T15:40:56.306Z,38.50
2018-05-11T15:43:59.680Z,39.40
2018-05-11T15:47:03.030Z,39.60
2018-05-11T15:50:06.418Z,38.60
2018-05-11T15:53:09.845Z,36.20
2018-05-11T15:56:13.214Z,35.90
2018-05-11T15:59:16.615Z,36.50
2018-05-11T16:02:19.972Z,35.80
2018-05-11T16:05:23.318Z,36.50
2018-05-11T16:08:26.670Z,36.80
2018-05-11T16:11:30.014Z,36.70
2018-05-11T16:14:33.407Z,35.80
2018-05-11T16:17:36.721Z,35.70
2018-05-11T16:20:40.221Z,34.50
2018-05-11T16:23:43.614Z,33.90
2018-05-11T16:26:46.955Z,33.50
2018-05-11T16:29:50.269Z,34.40
2018-05-11T16:32:54.228Z,35.30
2018-05-11T16:35:58.315Z,37.70
2018-05-11T16:39:01.727Z,36.90
2018-05-11T16:42:05.058Z,38.20
2018-05-11T16:45:08.650Z,38.50
2018-05-11T16:48:12.829Z,38.70
2018-05-11T16:51:16.214Z,38.60
2018-05-11T16:54:19.491Z,39.50
2018-05-11T16:57:22.829Z,39.70
2018-05-11T17:00:26.941Z,38.60
2018-05-11T17:03:31.095Z,39.40
2018-05-11T17:06:34.433Z,39.30
2018-05-11T17:09:37.780Z,41.20
2018-05-11T17:12:41.123Z,41.60
2018-05-11T17:15:44.454Z,41.20
2018-05-11T17:18:48.540Z,42.80
2018-05-11T17:21:51.940Z,42.70
2018-05-11T17:24:55.356Z,44.60
2018-05-11T17:27:58.691Z,46.40
2018-05-11T17:31:02.047Z,48.10
2018-05-11T17:34:05.388Z,49.60
2018-05-11T17:37:08.740Z,50.50
2018-05-11T17:40:12.103Z,51.70
2018-05-11T17:43:15.468Z,51.60
2018-05-11T17:46:18.913Z,52.00
2018-05-11T17:49:22.338Z,51.80
2018-05-11T17:52:26.460Z,51.60
2018-05-11T17:55:30.547Z,50.80
2018-05-11T17:58:33.937Z,50.80
2018-05-11T18:01:37.598Z,50.70
2018-05-11T18:04:40.972Z,51.70
2018-05-11T18:07:45.078Z,52.60
2018-05-11T18:10:49.186Z,53.30
2018-05-11T18:13:52.572Z,53.30
2018-05-11T18:16:55.948Z,54.80
2018-05-11T18:19:59.370Z,54.20
2018-05-11T18:23:02.758Z,55.20
2018-05-11T18:26:06.090Z,55.70
2018-05-11T18:29:10.218Z,57.50
2018-05-11T18:32:13.548Z,57.50
2018-05-11T18:35:16.973Z,58.50
2018-05-11T18:38:20.312Z,59.10
2018-05-11T18:41:23.652Z,59.40
2018-05-11T18:44:27.066Z,59.70
2018-05-11T18:47:30.417Z,60.40
2018-05-11T18:50:33.750Z,61.20
2018-05-11T18:53:37.409Z,61.90
2018-05-11T18:56:41.358Z,63.20
2018-05-11T18:59:44.908Z,63.10
2018-05-11T19:02:48.276Z,63.10
2018-05-11T19:05:52.382Z,64.10
2018-05-11T19:08:57.397Z,65.30
2018-05-11T19:12:00.690Z,65.20
2018-05-11T19:15:04.295Z,65.70
2018-05-11T19:18:07.661Z,67.00
2018-05-11T19:21:10.987Z,68.10
2018-05-11T19:24:14.334Z,68.80
2018-05-11T19:27:19.179Z,68.00
2018-05-11T19:30:22.633Z,69.40
2018-05-11T19:33:25.950Z,69.00
2018-05-11T19:39:33.953Z,70.60
2018-05-11T19:45:43.829Z,71.90
2018-05-11T19:48:47.191Z,71.80
2018-05-11T19:51:50.533Z,73.10
2018-05-11T19:54:54.837Z,72.50
2018-05-11T19:57:58.441Z,72.50
2018-05-11T20:01:01.892Z,72.70
2018-05-11T20:04:05.262Z,73.20
2018-05-11T20:07:09.401Z,74.10
2018-05-11T20:10:12.798Z,74.00
2018-05-11T20:13:16.260Z,74.60
2018-05-11T20:16:20.493Z,74.70
2018-05-11T20:19:25.129Z,75.20
2018-05-11T20:22:28.839Z,75.20
2018-05-11T20:25:32.297Z,75.50
2018-05-11T20:28:35.632Z,75.50
2018-05-11T20:31:38.990Z,76.30
2018-05-11T20:34:42.324Z,76.90
2018-05-11T20:37:45.775Z,76.70
2018-05-11T20:40:49.174Z,76.50
2018-05-11T20:43:52.571Z,76.10
2018-05-11T20:46:55.912Z,76.30
2018-05-11T20:49:59.304Z,77.00
2018-05-11T20:53:02.670Z,76.30
2018-05-11T20:56:06.169Z,76.20
2018-05-11T20:59:09.554Z,76.50
2018-05-11T21:02:12.977Z,77.10
2018-05-11T21:05:16.232Z,77.60
2018-05-11T21:08:20.411Z,78.00
2018-05-11T21:11:23.769Z,78.60
2018-05-11T21:14:27.237Z,79.30
2018-05-11T21:17:30.551Z,78.90
2018-05-11T21:20:33.945Z,79.00
2018-05-11T21:23:37.350Z,79.20
2018-05-11T21:26:41.489Z,82.40
2018-05-11T21:29:45.688Z,83.40
2018-05-11T21:32:49.443Z,83.40
2018-05-11T21:35:52.782Z,83.20
2018-05-11T21:38:56.175Z,83.10
2018-05-11T21:41:59.550Z,83.20
2018-05-11T21:45:02.901Z,82.80
2018-05-11T21:48:06.978Z,82.30
2018-05-11T21:51:10.320Z,82.20
2018-05-11T21:54:14.454Z,82.90
2018-05-11T21:57:17.915Z,82.90
2018-05-11T22:00:21.310Z,82.70
2018-05-11T22:03:24.669Z,82.40
2018-05-11T22:06:27.982Z,82.20
2018-05-11T22:09:31.390Z,81.60
2018-05-11T22:12:36.238Z,82.00
2018-05-11T22:15:40.349Z,82.20
2018-05-11T22:18:43.672Z,82.20
2018-05-11T22:21:47.100Z,82.40
2018-05-11T22:24:50.513Z,82.60
2018-05-11T22:27:53.941Z,82.40
2018-05-11T22:30:57.269Z,82.10
2018-05-11T22:34:00.612Z,82.40
2018-05-11T22:37:03.932Z,82.40
2018-05-11T22:40:07.274Z,82.40
2018-05-11T22:43:10.624Z,82.00
2018-05-11T22:46:14.012Z,82.00
2018-05-11T22:49:17.389Z,82.30
2018-05-11T22:52:20.734Z,83.70
2018-05-11T22:55:24.808Z,86.60
2018-05-11T22:58:28.163Z,86.50
2018-05-11T23:01:31.564Z,87.00
2018-05-11T23:04:34.900Z,87.80
2018-05-11T23:07:38.208Z,87.10
2018-05-11T23:10:41.589Z,86.70
2018-05-11T23:13:45.009Z,88.30
2018-05-11T23:16:48.390Z,88.60
2018-05-11T23:19:51.786Z,88.20
2018-05-11T23:22:55.191Z,88.00
2018-05-11T23:25:58.592Z,88.20
2018-05-11T23:29:01.954Z,88.30
2018-05-11T23:32:05.287Z,88.70
2018-05-11T23:35:08.741Z,88.80
2018-05-11T23:38:11.968Z,87.80
2018-05-11T23:41:15.358Z,87.40
2018-05-11T23:44:18.676Z,86.30
2018-05-11T23:47:22.018Z,85.90
2018-05-11T23:50:25.337Z,85.50
2018-05-11T23:53:28.753Z,85.50
2018-05-11T23:56:32.085Z,84.80
2018-05-11T23:59:36.271Z,84.00
